Time;durP1;ratioP1;P1;durP2;ratioP2;P2;SDS_P1;SDS_P2;PMS_P1;PMS_P2;Temp;Humidity;BMP_temperature;BMP_pressure;BME280_temperature;BME280_humidity;BME280_pressure;Samples;Min_cycle;Max_cycle;Signal;HPM_P1;HPM_P2
2021/12/25 00:00:13;;;;;;;6.67;5.10;;;;;;;5.61;100.00;95240.41;5033248;27;101883;-76
2021/12/25 00:02:43;;;;;;;6.20;5.07;;;;;;;5.63;100.00;95240.94;5030803;27;102179;-76
2021/12/25 00:05:12;;;;;;;7.40;6.17;;;;;;;5.57;100.00;95231.38;5031031;28;105351;-76
2021/12/25 00:07:39;;;;;;;16.53;14.10;;;;;;;5.58;100.00;95237.47;5031917;28;101812;-76
2021/12/25 00:10:07;;;;;;;17.23;14.83;;;;;;;5.56;100.00;95242.97;5035003;28;102939;-76
2021/12/25 00:12:35;;;;;;;11.47;8.30;;;;;;;5.54;100.00;95239.00;5030532;28;101896;-76
2021/12/25 00:15:05;;;;;;;9.93;6.73;;;;;;;5.49;100.00;95234.47;5031548;28;103563;-76
2021/12/25 00:17:34;;;;;;;13.30;8.67;;;;;;;5.48;100.00;95240.78;5030243;28;102790;-76
2021/12/25 00:20:01;;;;;;;21.37;17.40;;;;;;;5.54;100.00;95245.09;5031617;28;102015;-76
2021/12/25 00:22:28;;;;;;;8.40;6.83;;;;;;;5.43;100.00;95246.00;5030525;28;105758;-76
2021/12/25 00:24:56;;;;;;;12.27;9.20;;;;;;;5.44;100.00;95238.88;5030934;28;105429;-76
2021/12/25 00:27:40;;;;;;;12.27;8.90;;;;;;;5.43;100.00;95226.75;5032403;28;102091;-76
2021/12/25 00:30:19;;;;;;;16.33;11.30;;;;;;;5.33;100.00;95242.44;5031006;28;105398;-76
2021/12/25 00:32:55;;;;;;;10.13;9.00;;;;;;;5.39;100.00;95239.63;5033372;28;105074;-76
2021/12/25 00:35:23;;;;;;;9.80;7.90;;;;;;;5.32;100.00;95236.38;5030554;28;104858;-76
2021/12/25 00:37:50;;;;;;;8.80;7.53;;;;;;;5.38;100.00;95234.59;5030430;28;104071;-76
2021/12/25 00:40:22;;;;;;;9.23;7.70;;;;;;;5.33;100.00;95256.44;5031165;28;101773;-76
2021/12/25 00:42:50;;;;;;;11.57;7.33;;;;;;;5.28;100.00;95232.63;5031224;28;104257;-76
2021/12/25 00:45:17;;;;;;;12.90;8.23;;;;;;;5.29;100.00;95231.59;5031905;28;102578;-76
2021/12/25 00:47:45;;;;;;;7.57;6.63;;;;;;;5.28;100.00;95223.91;5031134;28;101825;-75
2021/12/25 00:50:13;;;;;;;7.40;6.33;;;;;;;5.26;100.00;95232.09;5031027;28;103696;-76
2021/12/25 00:52:40;;;;;;;6.67;5.30;;;;;;;5.32;100.00;95230.31;5030093;28;104980;-76
2021/12/25 00:55:08;;;;;;;7.57;5.90;;;;;;;5.34;100.00;95236.16;5034017;28;101836;-76
2021/12/25 00:57:37;;;;;;;8.77;6.70;;;;;;;5.33;100.00;95218.72;5029940;28;105064;-76
2021/12/25 01:00:09;;;;;;;12.30;8.20;;;;;;;5.21;100.00;95233.88;5031186;28;101930;-76
2021/12/25 01:02:40;;;;;;;12.90;8.33;;;;;;;5.25;100.00;95232.34;5065166;27;104769;-75
2021/12/25 01:05:09;;;;;;;26.40;14.50;;;;;;;5.22;100.00;95227.53;5029954;27;105043;-76
2021/12/25 01:07:39;;;;;;;17.63;10.47;;;;;;;5.17;100.00;95227.47;5029742;28;102005;-76
2021/12/25 01:10:13;;;;;;;17.07;10.03;;;;;;;5.17;100.00;95230.13;5029800;28;104979;-76
2021/12/25 01:12:53;;;;;;;28.87;16.43;;;;;;;5.17;100.00;95240.66;5029233;28;105440;-76
2021/12/25 01:15:27;;;;;;;21.33;12.63;;;;;;;5.12;100.00;95248.53;5029557;28;101966;-76
2021/12/25 01:24:13;;;;;;;9.20;7.77;;;;;;;5.13;100.00;95234.31;4932185;28;105584;-76
2021/12/25 01:27:17;;;;;;;9.80;7.80;;;;;;;5.16;100.00;95241.69;5030060;28;105868;-76
2021/12/25 01:29:50;;;;;;;10.07;7.90;;;;;;;5.17;100.00;95238.03;5064390;27;102045;-76
2021/12/25 01:38:49;;;;;;;9.57;7.50;;;;;;;5.15;100.00;95222.47;5024203;27;101787;-76
2021/12/25 01:47:48;;;;;;;8.47;6.80;;;;;;;5.01;100.00;95225.69;5030653;28;105271;-76
2021/12/25 01:50:17;;;;;;;10.30;7.13;;;;;;;5.04;100.00;95231.28;5029484;28;104678;-76
2021/12/25 01:52:45;;;;;;;8.13;7.10;;;;;;;5.07;100.00;95224.75;5030024;28;101951;-76
2021/12/25 01:55:17;;;;;;;7.60;6.87;;;;;;;5.07;100.00;95228.16;5030927;27;103189;-76
2021/12/25 01:57:46;;;;;;;7.83;7.00;;;;;;;5.08;100.00;95213.16;5029311;28;102703;-76
2021/12/25 02:00:19;;;;;;;8.00;7.20;;;;;;;5.13;100.00;95207.94;5029994;28;101855;-76
2021/12/25 02:02:51;;;;;;;8.93;7.07;;;;;;;5.02;100.00;95225.44;5028572;27;102152;-76
2021/12/25 02:05:18;;;;;;;7.10;6.47;;;;;;;5.12;100.00;95215.03;5032893;28;105531;-76
2021/12/25 02:07:46;;;;;;;8.73;6.80;;;;;;;5.11;100.00;95207.38;5030010;28;105306;-76
2021/12/25 02:10:14;;;;;;;8.07;7.27;;;;;;;5.11;100.00;95204.75;5028971;28;105460;-76
2021/12/25 02:12:43;;;;;;;9.53;7.33;;;;;;;5.11;100.00;95207.38;5029826;28;101883;-76
2021/12/25 02:15:18;;;;;;;7.57;6.77;;;;;;;5.01;100.00;95229.13;5029711;28;104952;-76
2021/12/25 02:18:06;;;;;;;7.80;7.10;;;;;;;4.98;100.00;95219.09;5028357;27;105052;-76
2021/12/25 02:21:00;;;;;;;7.47;6.67;;;;;;;5.07;100.00;95206.28;5028299;28;101647;-76
2021/12/25 02:23:28;;;;;;;7.77;7.07;;;;;;;5.07;100.00;95198.41;5012827;28;106036;-76
2021/12/25 02:25:57;;;;;;;6.67;5.97;;;;;;;5.09;100.00;95193.66;5028706;28;105113;-76
2021/12/25 02:28:26;;;;;;;6.97;6.27;;;;;;;5.10;100.00;95195.25;5033065;28;101938;-76
2021/12/25 02:30:58;;;;;;;7.03;6.33;;;;;;;5.17;100.00;95195.84;5029070;28;105197;-76
2021/12/25 02:33:26;;;;;;;6.27;5.67;;;;;;;5.17;100.00;95195.84;5029539;28;101819;-76
2021/12/25 02:35:56;;;;;;;6.33;5.73;;;;;;;5.18;100.00;95184.31;5029569;28;103518;-76
2021/12/25 02:38:24;;;;;;;6.43;5.80;;;;;;;5.15;100.00;95182.16;5028726;28;104884;-77
2021/12/25 02:40:51;;;;;;;6.37;5.60;;;;;;;5.18;100.00;95173.75;5012830;28;101971;-76
2021/12/25 02:43:20;;;;;;;7.73;6.30;;;;;;;5.18;100.00;95181.66;5029361;28;104836;-77
2021/12/25 02:45:47;;;;;;;7.00;5.50;;;;;;;5.20;100.00;95187.47;5029116;28;104776;-77
2021/12/25 02:48:17;;;;;;;5.97;5.37;;;;;;;5.19;100.00;95173.50;5029136;28;101755;-76
2021/12/25 02:50:46;;;;;;;7.90;6.17;;;;;;;5.23;100.00;95176.47;5032251;28;104517;-76
2021/12/25 02:53:17;;;;;;;7.97;6.20;;;;;;;5.22;100.00;95170.38;5029214;28;102015;-76
2021/12/25 02:55:46;;;;;;;8.03;6.30;;;;;;;5.12;100.00;95180.00;5062636;27;105695;-76
2021/12/25 02:58:19;;;;;;;9.63;7.20;;;;;;;5.15;100.00;95168.97;5028496;28;104400;-76
2021/12/25 03:00:51;;;;;;;10.33;7.50;;;;;;;5.08;100.00;95171.00;5063551;27;101947;-76
2021/12/25 03:03:18;;;;;;;8.80;6.40;;;;;;;5.08;100.00;95165.72;5029164;28;105621;-76
2021/12/25 03:05:47;;;;;;;7.73;6.70;;;;;;;5.07;100.00;95166.78;5028568;28;105160;-76
2021/12/25 03:08:17;;;;;;;9.20;7.50;;;;;;;5.05;100.00;95172.28;5028790;28;101840;-76
2021/12/25 03:10:53;;;;;;;7.93;7.13;;;;;;;5.08;100.00;95165.72;5029047;28;104772;-76
2021/12/25 03:13:33;;;;;;;8.00;6.40;;;;;;;5.12;100.00;95180.00;5031778;28;105369;-76
2021/12/25 03:16:03;;;;;;;6.30;5.70;;;;;;;5.18;100.00;95165.84;5028544;28;103694;-76
2021/12/25 03:18:34;;;;;;;8.43;6.07;;;;;;;5.22;100.00;95172.22;5027392;28;104226;-76
2021/12/25 03:21:05;;;;;;;6.93;5.70;;;;;;;5.28;100.00;95171.22;5028926;28;102107;-76
2021/12/25 03:23:37;;;;;;;6.07;5.30;;;;;;;5.27;100.00;95165.16;5028611;28;104832;-76
2021/12/25 03:26:07;;;;;;;6.70;5.97;;;;;;;5.27;100.00;95178.34;5029556;28;102607;-76
2021/12/25 03:28:38;;;;;;;5.60;5.10;;;;;;;5.17;100.00;95166.88;5029502;27;101811;-76
2021/12/25 03:31:14;;;;;;;6.50;5.30;;;;;;;5.24;100.00;95159.59;5033312;28;102515;-76
2021/12/25 03:33:41;;;;;;;5.93;5.23;;;;;;;5.18;100.00;95158.72;5031464;28;105069;-76
2021/12/25 03:36:08;;;;;;;5.80;5.20;;;;;;;5.17;100.00;95158.97;5035671;28;101704;-76
2021/12/25 03:38:39;;;;;;;6.37;5.20;;;;;;;5.23;100.00;95155.38;5031498;28;105253;-76
2021/12/25 03:41:08;;;;;;;5.93;5.33;;;;;;;5.18;100.00;95165.84;5031816;28;101837;-76
2021/12/25 03:43:38;;;;;;;5.90;5.30;;;;;;;5.21;100.00;95152.16;5032108;28;104822;-76
2021/12/25 03:46:09;;;;;;;5.47;4.87;;;;;;;5.18;100.00;95147.41;5065429;27;105615;-76
2021/12/25 03:59:41;;;;;;;7.20;5.30;;;;;;;5.20;100.00;95137.41;4994568;28;105143;-76
2021/12/25 04:02:15;;;;;;;7.30;5.60;;;;;;;5.16;100.00;95137.09;4993113;28;101781;-76
2021/12/25 04:04:49;;;;;;;5.27;4.77;;;;;;;5.13;100.00;95139.44;5024962;28;105667;-76
2021/12/25 04:07:39;;;;;;;5.13;4.63;;;;;;;5.20;100.00;95137.41;5024511;28;104988;-76
2021/12/25 04:10:09;;;;;;;6.47;4.93;;;;;;;5.27;100.00;95138.00;5025107;28;102371;-76
2021/12/25 04:12:36;;;;;;;6.47;5.03;;;;;;;5.34;100.00;95128.09;4991542;28;104998;-76
2021/12/25 04:15:06;;;;;;;5.67;4.90;;;;;;;5.23;100.00;95137.72;4990747;28;105451;-76
2021/12/25 04:17:33;;;;;;;6.30;5.17;;;;;;;5.18;100.00;95131.59;4991578;28;101827;-76
2021/12/25 04:20:03;;;;;;;6.43;5.50;;;;;;;5.20;100.00;95140.84;4994177;28;104840;-76
2021/12/25 04:22:37;;;;;;;5.07;4.67;;;;;;;5.24;100.00;95122.72;4991201;28;102089;-76
2021/12/25 04:25:04;;;;;;;6.43;5.03;;;;;;;5.26;100.00;95126.69;4991509;28;104855;-76
2021/12/25 04:27:33;;;;;;;5.43;4.87;;;;;;;5.31;100.00;95133.84;4990701;28;104866;-76
2021/12/25 04:30:05;;;;;;;6.10;5.57;;;;;;;5.24;100.00;95138.50;4991177;28;102148;-76
2021/12/25 05:03:39;;;;;;;5.60;4.60;;;;;;;5.21;100.00;95139.00;4953406;28;104974;-76
2021/12/25 05:06:28;;;;;;;6.03;5.13;;;;;;;5.19;100.00;95126.06;4952919;28;105106;-76
2021/12/25 05:08:56;;;;;;;6.07;4.80;;;;;;;5.22;100.00;95130.03;4969189;28;101862;-76
2021/12/25 05:11:24;;;;;;;4.77;4.30;;;;;;;5.22;100.00;95120.31;5030178;28;105172;-76
2021/12/25 05:13:52;;;;;;;5.40;4.50;;;;;;;5.22;100.00;95120.31;5030858;28;101965;-76
2021/12/25 05:16:26;;;;;;;4.57;4.17;;;;;;;5.29;100.00;95114.84;5030871;28;104946;-76
2021/12/25 05:18:54;;;;;;;5.00;4.13;;;;;;;5.27;100.00;95117.72;5063939;27;105331;-76
2021/12/25 05:21:21;;;;;;;4.70;4.30;;;;;;;5.22;100.00;95112.41;5030479;28;101862;-76
2021/12/25 05:23:49;;;;;;;6.23;4.87;;;;;;;5.24;100.00;95117.44;5030562;28;104759;-76
2021/12/25 05:26:19;;;;;;;6.73;4.30;;;;;;;5.24;100.00;95122.72;5030277;28;104240;-76
2021/12/25 05:28:57;;;;;;;4.40;4.00;;;;;;;5.23;100.00;95111.34;5030617;28;101975;-76
2021/12/25 05:31:27;;;;;;;4.80;3.90;;;;;;;5.22;100.00;95116.88;5033144;28;104900;-76
2021/12/25 05:34:07;;;;;;;6.20;4.50;;;;;;;5.20;100.00;95116.31;5030584;28;102149;-76
2021/12/25 05:36:46;;;;;;;4.50;4.07;;;;;;;5.20;100.00;95105.78;5030343;28;105109;-76
2021/12/25 05:39:49;;;;;;;4.33;3.93;;;;;;;5.21;100.00;95107.38;5002670;28;102478;-76
2021/12/25 05:42:18;;;;;;;4.80;4.27;;;;;;;5.15;100.00;95093.38;5030151;28;101933;-76
2021/12/25 05:44:45;;;;;;;5.10;4.17;;;;;;;5.15;100.00;95089.94;5030108;28;105672;-76
2021/12/25 05:47:26;;;;;;;4.47;4.07;;;;;;;5.07;100.00;95091.16;5027789;27;102457;-76
2021/12/25 05:50:10;;;;;;;5.37;4.17;;;;;;;5.13;100.00;95090.16;5015874;28;101907;-76
2021/12/25 05:52:55;;;;;;;5.67;4.13;;;;;;;5.15;100.00;95100.47;5030242;27;104955;-76
2021/12/25 05:55:41;;;;;;;4.63;4.17;;;;;;;5.14;100.00;95102.28;5034323;28;102980;-76
2021/12/25 05:58:45;;;;;;;6.47;4.47;;;;;;;4.95;100.00;95102.88;4988720;28;102798;-76
2021/12/25 06:01:20;;;;;;;4.50;4.10;;;;;;;4.92;100.00;95098.09;5020649;28;105187;-76
2021/12/25 06:03:49;;;;;;;5.20;4.70;;;;;;;4.88;100.00;95112.81;5030321;28;102022;-76
2021/12/25 06:06:17;;;;;;;4.77;4.27;;;;;;;4.88;100.00;95107.53;5029817;28;103767;-76
2021/12/25 06:08:44;;;;;;;6.03;5.20;;;;;;;4.83;100.00;95107.47;5029261;28;104965;-76
2021/12/25 06:11:10;;;;;;;6.13;4.80;;;;;;;4.77;100.00;95113.72;5029781;28;101782;-76
2021/12/25 06:13:44;;;;;;;5.70;4.77;;;;;;;4.66;100.00;95110.19;5029706;28;105217;-76
2021/12/25 06:16:13;;;;;;;5.40;4.97;;;;;;;4.68;100.00;95120.44;5028892;28;104335;-76
2021/12/25 06:19:13;;;;;;;6.00;5.40;;;;;;;4.62;100.00;95113.53;5028305;28;101787;-76
2021/12/25 06:21:56;;;;;;;5.67;5.13;;;;;;;4.51;100.00;95122.34;5028988;28;103957;-76
2021/12/25 06:24:36;;;;;;;5.60;5.10;;;;;;;4.58;100.00;95120.34;5029468;28;101815;-76
2021/12/25 06:27:14;;;;;;;5.80;5.30;;;;;;;4.66;100.00;95125.16;5029662;28;105605;-76
2021/12/25 06:30:20;;;;;;;6.87;5.17;;;;;;;4.69;100.00;95114.94;5021040;27;103738;-76
2021/12/25 06:33:15;;;;;;;5.80;5.20;;;;;;;4.65;100.00;95113.84;5029253;28;101937;-76
2021/12/25 06:36:05;;;;;;;5.43;4.93;;;;;;;4.73;100.00;95120.50;5031260;28;102199;-75
2021/12/25 06:38:59;;;;;;;5.77;5.20;;;;;;;4.70;100.00;95147.34;5028802;28;105197;-75
2021/12/25 06:41:43;;;;;;;5.97;4.87;;;;;;;4.80;100.00;95142.22;5032719;28;101914;-75
2021/12/25 06:44:11;;;;;;;6.00;5.23;;;;;;;4.85;100.00;95163.34;5028506;28;105045;-75
2021/12/25 06:46:43;;;;;;;5.03;4.57;;;;;;;5.03;100.00;95155.91;5029252;28;101875;-75
2021/12/25 06:49:09;;;;;;;6.20;4.43;;;;;;;5.06;100.00;95158.06;5029413;28;105425;-75
2021/12/25 06:51:58;;;;;;;4.70;4.30;;;;;;;5.33;100.00;95179.19;5007592;27;102025;-75
2021/12/25 06:54:33;;;;;;;4.87;4.30;;;;;;;5.41;100.00;95173.50;5028768;28;102073;-76
2021/12/25 06:57:22;;;;;;;4.47;4.07;;;;;;;5.40;100.00;95153.44;5029106;28;105912;-76
2021/12/25 06:59:51;;;;;;;5.30;4.07;;;;;;;5.40;100.00;95142.91;5028583;28;105539;-75
2021/12/25 07:02:18;;;;;;;5.07;4.37;;;;;;;5.37;100.00;95138.13;5029058;28;101896;-75
2021/12/25 07:05:05;;;;;;;5.97;4.10;;;;;;;5.31;100.00;95150.47;5029654;28;102083;-75
2021/12/25 07:08:12;;;;;;;5.00;3.97;;;;;;;5.29;100.00;95125.41;5023104;27;101746;-75
2021/12/25 07:10:58;;;;;;;4.83;4.37;;;;;;;5.26;100.00;95134.59;5030876;28;102069;-75
2021/12/25 07:13:37;;;;;;;4.93;4.43;;;;;;;5.22;100.00;95130.84;5028454;28;105112;-76
2021/12/25 07:16:28;;;;;;;5.10;4.43;;;;;;;5.20;100.00;95127.69;5018856;27;101987;-76
2021/12/25 07:19:15;;;;;;;5.53;4.40;;;;;;;5.18;100.00;95119.22;5030475;28;102054;-75
2021/12/25 07:22:03;;;;;;;6.73;3.93;;;;;;;5.16;100.00;95112.59;5007415;27;103252;-75
2021/12/25 07:24:34;;;;;;;5.93;4.30;;;;;;;5.20;100.00;95126.88;5027205;27;101667;-75
2021/12/25 07:27:22;;;;;;;5.37;3.97;;;;;;;5.27;100.00;95119.56;5029273;28;103201;-75
2021/12/25 07:29:55;;;;;;;5.17;4.00;;;;;;;5.35;100.00;95121.75;5031375;28;104271;-76
2021/12/25 07:32:23;;;;;;;6.33;4.20;;;;;;;5.37;100.00;95095.94;5028710;28;105573;-76
2021/12/25 07:34:50;;;;;;;3.83;3.53;;;;;;;5.38;100.00;95124.69;5027795;28;105769;-76
2021/12/25 07:37:19;;;;;;;3.83;3.53;;;;;;;5.41;100.00;95118.13;5028683;28;101798;-76
2021/12/25 07:39:48;;;;;;;4.17;3.70;;;;;;;5.49;100.00;95117.66;5028737;28;105222;-76
2021/12/25 07:42:15;;;;;;;3.67;3.37;;;;;;;5.60;100.00;95127.25;5027574;28;105043;-76
2021/12/25 07:45:18;;;;;;;6.23;4.00;;;;;;;5.60;100.00;95119.34;5007046;28;101784;-76
2021/12/25 07:47:50;;;;;;;4.27;3.60;;;;;;;5.59;100.00;95130.94;5018985;28;104982;-76
2021/12/25 07:50:18;;;;;;;4.30;3.90;;;;;;;5.63;100.00;95129.41;5027930;28;105228;-76
2021/12/25 07:52:45;;;;;;;4.50;4.10;;;;;;;5.58;100.00;95132.00;5031833;28;101763;-76
2021/12/25 07:55:14;;;;;;;4.03;3.73;;;;;;;5.58;100.00;95132.00;5027652;28;105335;-76
2021/12/25 07:57:41;;;;;;;4.50;3.77;;;;;;;5.55;100.00;95130.66;5029393;28;101761;-76
2021/12/25 08:00:11;;;;;;;4.57;3.80;;;;;;;5.58;100.00;95122.25;5028310;28;104797;-76
2021/12/25 08:02:47;;;;;;;4.53;4.00;;;;;;;5.58;100.00;95121.47;5029625;27;102309;-76
2021/12/25 08:05:15;;;;;;;4.77;4.13;;;;;;;5.56;100.00;95126.19;5029642;28;101843;-75
2021/12/25 08:07:42;;;;;;;4.70;3.80;;;;;;;5.60;100.00;95133.34;5026937;28;105311;-75
2021/12/25 08:10:13;;;;;;;4.70;4.27;;;;;;;5.57;100.00;95133.81;5027715;28;105286;-75
2021/12/25 08:12:45;;;;;;;5.40;4.23;;;;;;;5.57;100.00;95144.38;5029592;27;102042;-75
2021/12/25 08:15:13;;;;;;;4.37;3.97;;;;;;;5.57;100.00;95140.97;5032477;27;102554;-75
2021/12/25 08:17:41;;;;;;;5.50;4.73;;;;;;;5.60;100.00;95138.63;5031679;28;101748;-75
2021/12/25 08:20:27;;;;;;;5.83;3.70;;;;;;;5.66;100.00;95144.72;5033471;28;102061;-76
2021/12/25 08:23:12;;;;;;;4.03;3.63;;;;;;;5.77;100.00;95143.75;5032559;28;102377;-76
2021/12/25 08:25:59;;;;;;;4.03;3.63;;;;;;;5.80;100.00;95148.59;5033232;28;102000;-76
2021/12/25 08:28:47;;;;;;;4.37;3.30;;;;;;;5.88;100.00;95153.38;5029984;28;102050;-76
2021/12/25 08:31:33;;;;;;;4.07;3.10;;;;;;;5.90;100.00;95141.53;5032119;28;102212;-76
2021/12/25 08:34:19;;;;;;;4.03;3.67;;;;;;;5.94;100.00;95147.13;5029826;28;102563;-76
2021/12/25 08:37:12;;;;;;;3.77;3.20;;;;;;;6.05;100.00;95151.44;5031426;27;102443;-76
2021/12/25 08:39:40;;;;;;;2.97;2.70;;;;;;;6.08;100.00;95151.75;5035103;27;102170;-76
2021/12/25 08:42:08;;;;;;;3.83;3.47;;;;;;;6.11;100.00;95142.53;5030821;28;104778;-76
2021/12/25 08:44:52;;;;;;;3.90;3.40;;;;;;;6.15;100.00;95147.03;5029973;28;106087;-76
2021/12/25 08:47:19;;;;;;;3.87;3.47;;;;;;;6.18;100.00;95135.97;5029840;28;101797;-76
2021/12/25 08:49:46;;;;;;;4.70;3.17;;;;;;;6.22;100.00;95136.28;5030689;28;103597;-76
2021/12/25 08:52:16;;;;;;;3.57;3.03;;;;;;;6.24;100.00;95145.53;5029971;28;105284;-76
2021/12/25 08:54:45;;;;;;;3.60;3.30;;;;;;;6.30;100.00;95138.41;5030274;28;101913;-76
2021/12/25 08:57:13;;;;;;;4.00;3.10;;;;;;;6.33;100.00;95136.06;5030351;28;105687;-76
2021/12/25 08:59:41;;;;;;;3.30;3.00;;;;;;;6.34;100.00;95128.94;5033260;28;105305;-76
2021/12/25 09:02:12;;;;;;;3.23;2.93;;;;;;;6.41;100.00;95125.03;5030368;28;105209;-76
2021/12/25 09:04:41;;;;;;;4.03;3.00;;;;;;;6.39;100.00;95116.56;5029828;28;105297;-76
2021/12/25 09:07:09;;;;;;;3.20;2.90;;;;;;;6.41;100.00;95103.13;5030316;28;102029;-76
2021/12/25 09:09:37;;;;;;;3.97;3.23;;;;;;;6.46;100.00;95096.03;5030066;28;104062;-76
2021/12/25 09:12:04;;;;;;;4.07;3.40;;;;;;;6.41;100.00;95113.69;5030186;28;106712;-76
2021/12/25 09:14:32;;;;;;;4.00;3.63;;;;;;;6.41;100.00;95121.59;5030099;28;101967;-76
2021/12/25 09:17:01;;;;;;;5.13;3.40;;;;;;;6.50;100.00;95125.34;5029924;28;104862;-76
2021/12/25 09:19:29;;;;;;;3.80;3.50;;;;;;;6.58;100.00;95127.50;5029392;28;103903;-76
2021/12/25 09:21:56;;;;;;;3.50;3.20;;;;;;;6.56;100.00;95130.44;5033880;28;101992;-76
2021/12/25 09:24:24;;;;;;;4.17;3.77;;;;;;;6.56;100.00;95133.06;5029982;28;105162;-76
2021/12/25 09:26:50;;;;;;;4.30;3.90;;;;;;;6.55;100.00;95128.03;5029862;27;101974;-76
2021/12/25 09:29:18;;;;;;;4.63;3.83;;;;;;;6.55;100.00;95135.94;5031614;28;102397;-76
2021/12/25 09:31:45;;;;;;;4.60;3.97;;;;;;;6.57;100.00;95131.19;5029547;28;105039;-76
2021/12/25 09:34:15;;;;;;;5.00;4.23;;;;;;;6.54;100.00;95131.72;5030243;28;101733;-76
2021/12/25 09:36:44;;;;;;;4.77;4.37;;;;;;;6.56;100.00;95134.91;5030345;28;106483;-76
2021/12/25 09:39:11;;;;;;;3.97;3.50;;;;;;;6.51;100.00;95124.31;5029799;28;103859;-76
2021/12/25 09:41:38;;;;;;;3.87;3.57;;;;;;;6.48;100.00;95124.81;5030296;28;102220;-76
2021/12/25 09:44:06;;;;;;;5.60;5.10;;;;;;;6.48;100.00;95130.88;5032751;28;105690;-76
2021/12/25 09:46:34;;;;;;;4.37;3.97;;;;;;;6.46;100.00;95129.56;5064282;27;101705;-76
2021/12/25 09:49:02;;;;;;;5.00;4.40;;;;;;;6.48;100.00;95124.81;5028976;28;105313;-76
2021/12/25 09:51:31;;;;;;;3.73;3.33;;;;;;;6.51;100.00;95124.31;5030907;28;103260;-76
2021/12/25 09:54:00;;;;;;;5.50;3.77;;;;;;;6.51;100.00;95138.31;5029789;28;101946;-76
2021/12/25 09:56:27;;;;;;;4.20;3.80;;;;;;;6.54;100.00;95132.50;5064070;27;105486;-76
2021/12/25 09:58:55;;;;;;;5.93;5.20;;;;;;;6.58;100.00;95136.22;5029424;28;105035;-76
2021/12/25 10:01:34;;;;;;;4.93;4.10;;;;;;;6.63;100.00;95133.63;5029297;28;101932;-76
2021/12/25 10:04:01;;;;;;;6.23;5.63;;;;;;;6.64;100.00;95132.56;5009881;28;104971;-74
2021/12/25 10:06:32;;;;;;;4.50;4.10;;;;;;;6.64;100.00;95129.13;5025249;28;104978;-74
2021/12/25 10:08:59;;;;;;;4.30;3.90;;;;;;;6.67;100.00;95128.63;5026555;28;104878;-75
2021/12/25 10:11:30;;;;;;;4.53;4.13;;;;;;;6.67;100.00;95128.63;5028977;28;105330;-75
2021/12/25 10:13:59;;;;;;;6.43;5.50;;;;;;;6.71;100.00;95135.00;5029470;28;102119;-75
2021/12/25 10:16:29;;;;;;;3.93;3.53;;;;;;;6.74;100.00;95129.19;5028968;28;104000;-75
2021/12/25 10:19:13;;;;;;;5.97;4.87;;;;;;;6.79;100.00;95126.56;5029922;28;104145;-75
2021/12/25 10:21:42;;;;;;;5.40;4.43;;;;;;;6.82;100.00;95131.34;5030568;28;101828;-75
2021/12/25 10:24:16;;;;;;;5.30;4.73;;;;;;;6.82;100.00;95136.63;5029259;28;104012;-75
2021/12/25 10:26:46;;;;;;;5.23;4.20;;;;;;;6.81;100.00;95143.75;5028342;28;105161;-75
2021/12/25 10:29:21;;;;;;;4.40;4.00;;;;;;;6.75;100.00;95157.19;5032936;28;101925;-75
2021/12/25 10:31:49;;;;;;;5.27;4.57;;;;;;;6.74;100.00;95155.59;5028782;28;105921;-75
2021/12/25 10:34:20;;;;;;;4.60;4.20;;;;;;;6.71;100.00;95151.63;5028705;28;101994;-75
2021/12/25 10:36:50;;;;;;;5.10;3.97;;;;;;;6.69;100.00;95152.91;5029155;28;105163;-75
2021/12/25 10:39:20;;;;;;;3.53;3.20;;;;;;;6.69;100.00;95161.66;5027161;28;104170;-75
2021/12/25 10:41:56;;;;;;;4.57;3.80;;;;;;;6.61;100.00;95161.34;5029391;28;101873;-75
2021/12/25 10:44:25;;;;;;;4.53;4.10;;;;;;;6.59;100.00;95158.94;5028975;28;105226;-68
2021/12/25 10:46:54;;;;;;;5.07;4.37;;;;;;;6.63;100.00;95161.88;5029961;28;104397;-71
2021/12/25 10:49:23;;;;;;;5.00;4.40;;;;;;;6.56;100.00;95163.94;5032549;28;101894;-66
2021/12/25 10:51:52;;;;;;;4.77;4.27;;;;;;;6.54;100.00;95148.34;5028324;28;103742;-66
2021/12/25 10:54:21;;;;;;;5.13;4.30;;;;;;;6.58;100.00;95140.72;5028095;28;102784;-66
2021/12/25 10:56:49;;;;;;;4.70;3.87;;;;;;;6.62;100.00;95121.47;5026535;28;105498;-66
2021/12/25 10:59:19;;;;;;;4.67;4.17;;;;;;;6.64;100.00;95139.69;5028294;28;104608;-66
2021/12/25 11:01:49;;;;;;;4.37;3.97;;;;;;;6.71;100.00;95119.13;5029183;28;101956;-66
2021/12/25 11:04:28;;;;;;;4.50;3.80;;;;;;;6.77;100.00;95110.19;5028939;28;105890;-66
2021/12/25 11:06:57;;;;;;;3.67;3.33;;;;;;;6.83;100.00;95106.50;5028579;28;105832;-66
2021/12/25 11:09:24;;;;;;;7.40;3.77;;;;;;;6.89;100.00;95101.00;5028769;28;103048;-66
2021/12/25 11:12:20;;;;;;;4.30;3.53;;;;;;;6.98;100.00;95101.28;5032069;28;105306;-66
2021/12/25 11:14:49;;;;;;;3.70;3.40;;;;;;;7.06;100.00;95088.38;5028877;28;101821;-66
2021/12/25 11:17:32;;;;;;;3.63;3.33;;;;;;;7.14;100.00;95090.50;5029167;28;105808;-66
2021/12/25 11:20:01;;;;;;;4.90;4.03;;;;;;;7.22;100.00;95087.38;5028257;28;106186;-66
2021/12/25 11:22:48;;;;;;;5.03;3.63;;;;;;;7.32;100.00;95078.66;5028555;28;101867;-66
2021/12/25 11:25:17;;;;;;;4.30;3.70;;;;;;;7.42;100.00;95086.59;5010021;28;104433;-66
2021/12/25 11:27:44;;;;;;;4.77;3.13;;;;;;;7.49;100.00;95079.22;5009899;28;102853;-66
2021/12/25 11:30:12;;;;;;;5.17;3.77;;;;;;;7.55;100.00;95078.97;5008377;28;102188;-66
2021/12/25 11:32:39;;;;;;;3.33;3.03;;;;;;;7.62;100.00;95068.09;5014828;28;104893;-66
2021/12/25 11:35:08;;;;;;;3.73;3.07;;;;;;;7.67;100.00;95076.03;5031109;28;105767;-66
2021/12/25 11:37:39;;;;;;;3.30;2.97;;;;;;;7.69;100.00;95081.88;5028387;28;106261;-66
2021/12/25 11:40:09;;;;;;;3.90;3.50;;;;;;;7.69;100.00;95063.38;5028100;28;106033;-66
2021/12/25 11:42:42;;;;;;;4.97;4.07;;;;;;;7.74;100.00;95061.50;5028474;28;101914;-66
2021/12/25 11:45:14;;;;;;;5.07;3.83;;;;;;;7.73;100.00;95070.50;5028487;28;104893;-66
2021/12/25 11:47:43;;;;;;;6.33;4.30;;;;;;;7.78;100.00;95061.75;5028038;28;105134;-66
2021/12/25 11:50:13;;;;;;;4.17;3.77;;;;;;;7.82;100.00;95068.13;5029583;28;102229;-66
2021/12/25 11:52:49;;;;;;;4.53;4.07;;;;;;;7.82;100.00;95062.81;5032177;28;103970;-66
2021/12/25 11:58:49;;;;;;;7.57;6.23;;;;;;;7.75;100.00;95059.66;5034346;28;101961;-66
2021/12/25 12:01:26;;;;;;;5.50;4.60;;;;;;;7.70;100.00;95071.00;5031387;28;104010;-66
2021/12/25 12:03:57;;;;;;;5.23;4.60;;;;;;;7.72;100.00;95062.81;5032190;28;101828;-66
2021/12/25 12:06:57;;;;;;;5.57;4.80;;;;;;;7.71;100.00;95061.25;5031916;28;104356;-65
2021/12/25 12:09:57;;;;;;;10.97;6.90;;;;;;;7.77;100.00;95065.47;5032512;28;103342;-67
2021/12/25 12:12:40;;;;;;;6.87;5.30;;;;;;;7.73;100.00;95070.50;5009842;28;101723;-66
2021/12/25 12:15:15;;;;;;;6.93;5.40;;;;;;;7.67;100.00;95074.19;5013109;28;102463;-68
2021/12/25 12:18:35;;;;;;;9.70;6.37;;;;;;;7.65;100.00;95081.63;5011833;28;103902;-68
2021/12/25 12:21:10;;;;;;;22.00;13.37;;;;;;;7.71;100.00;95085.06;5031261;28;101966;-68
2021/12/25 12:23:51;;;;;;;5.70;5.10;;;;;;;7.66;100.00;95082.41;5033562;28;105319;-68
2021/12/25 12:26:52;;;;;;;15.13;7.40;;;;;;;7.57;100.00;95092.72;5031564;28;101788;-68
2021/12/25 12:29:47;;;;;;;39.00;24.50;;;;;;;7.46;100.00;95090.28;5032979;28;103033;-68
2021/12/25 12:32:36;;;;;;;7.40;5.97;;;;;;;7.30;100.00;95101.94;5026711;28;105546;-67
2021/12/25 12:35:06;;;;;;;22.47;15.80;;;;;;;7.24;100.00;95100.28;5025860;28;101945;-67
2021/12/25 12:37:34;;;;;;;14.67;11.37;;;;;;;7.26;100.00;95111.44;5030211;28;105044;-67
2021/12/25 12:40:22;;;;;;;18.40;13.90;;;;;;;7.29;100.00;95105.59;5031376;28;102583;-67
2021/12/25 12:42:55;;;;;;;22.80;15.60;;;;;;;7.21;100.00;95106.91;5030303;28;102160;-67
2021/12/25 12:45:24;;;;;;;14.57;10.80;;;;;;;7.29;100.00;95116.19;5030231;28;104689;-67
2021/12/25 12:48:14;;;;;;;7.33;6.37;;;;;;;7.30;100.00;95107.22;5032612;28;105703;-67
2021/12/25 12:50:43;;;;;;;6.23;5.37;;;;;;;7.26;100.00;95116.72;5030203;28;105012;-67
2021/12/25 12:53:10;;;;;;;13.73;11.33;;;;;;;7.26;100.00;95108.78;5030830;28;103119;-67
2021/12/25 12:55:39;;;;;;;9.60;8.53;;;;;;;7.32;100.00;95110.38;5029035;28;102062;-67
2021/12/25 12:58:11;;;;;;;7.97;5.90;;;;;;;7.31;100.00;95106.16;5031026;28;105167;-67